Time;durP1;ratioP1;P1;durP2;ratioP2;P2;SDS_P1;SDS_P2;PMS_P1;PMS_P2;Temp;Humidity;BMP_temperature;BMP_pressure;BME280_temperature;BME280_humidity;BME280_pressure;Samples;Min_cycle;Max_cycle;Signal;HPM_P1;HPM_P2
2022/11/01 00:02:17;;;;;;;21.08;10.45;;;;;;;12.21;85.90;100502.66;4334192;33;33551;-73
2022/11/01 00:04:45;;;;;;;19.50;10.43;;;;;;;12.21;86.39;100497.22;4334157;33;33415;-74
2022/11/01 00:07:12;;;;;;;18.20;9.10;;;;;;;11.86;88.30;100495.38;4333170;33;34980;-73
2022/11/01 00:09:40;;;;;;;18.98;9.82;;;;;;;11.97;87.73;100500.00;4332985;33;34095;-73
2022/11/01 00:12:07;;;;;;;18.37;9.82;;;;;;;12.46;85.56;100494.16;4333982;33;33341;-73
2022/11/01 00:14:34;;;;;;;18.98;10.13;;;;;;;12.06;86.70;100486.84;4320562;33;34067;-78
2022/11/01 00:17:02;;;;;;;20.88;9.95;;;;;;;12.09;86.69;100486.34;4332936;33;34200;-78
2022/11/01 00:19:30;;;;;;;19.95;8.98;;;;;;;11.85;88.49;100485.53;4334018;33;34106;-77
2022/11/01 00:21:57;;;;;;;18.40;9.32;;;;;;;11.93;87.98;100487.13;4320412;33;34315;-78
2022/11/01 00:24:24;;;;;;;19.00;9.10;;;;;;;12.32;85.73;100491.72;4334154;33;33773;-78
2022/11/01 00:26:52;;;;;;;17.87;9.48;;;;;;;12.04;86.84;100487.06;4332742;33;35078;-74
2022/11/01 00:29:19;;;;;;;18.35;8.98;;;;;;;12.30;85.50;100482.97;4333731;33;33639;-77
2022/11/01 00:31:47;;;;;;;17.20;9.65;;;;;;;11.72;87.98;100480.38;4332952;33;33401;-75
2022/11/01 00:34:15;;;;;;;19.12;9.38;;;;;;;11.97;87.37;100474.69;4333927;33;33780;-74
2022/11/01 00:36:42;;;;;;;23.52;10.45;;;;;;;12.14;86.07;100480.19;4320523;33;34176;-74
2022/11/01 00:39:13;;;;;;;16.92;9.02;;;;;;;12.40;84.50;100481.53;4333040;33;34618;-74
2022/11/01 00:41:41;;;;;;;21.00;9.13;;;;;;;12.51;82.84;100477.94;4333780;33;33542;-74
2022/11/01 00:44:08;;;;;;;22.37;9.82;;;;;;;12.04;86.12;100475.38;4319669;33;34828;-74
2022/11/01 00:46:36;;;;;;;20.10;11.05;;;;;;;12.09;86.05;100475.47;4319653;33;35081;-73
2022/11/01 00:49:03;;;;;;;21.27;10.25;;;;;;;11.75;87.61;100483.44;4320705;33;34171;-73
2022/11/01 00:51:31;;;;;;;19.20;10.13;;;;;;;11.68;89.46;100477.28;4333272;33;33714;-78
2022/11/01 00:53:58;;;;;;;21.08;10.75;;;;;;;11.99;87.01;100475.28;4333201;33;33969;-77
2022/11/01 00:56:26;;;;;;;19.52;10.10;;;;;;;11.98;86.58;100473.63;4333559;33;34228;-74
2022/11/01 00:58:53;;;;;;;20.30;10.80;;;;;;;11.47;89.68;100470.59;4336244;33;34733;-74
2022/11/01 01:01:21;;;;;;;23.55;10.30;;;;;;;11.85;87.92;100453.75;4338557;33;33661;-73
2022/11/01 01:03:49;;;;;;;20.17;10.38;;;;;;;11.34;90.34;100451.78;4341327;33;35123;-73
2022/11/01 01:06:16;;;;;;;22.17;10.38;;;;;;;11.24;91.91;100450.50;4337714;33;34886;-73
2022/11/01 01:08:43;;;;;;;19.67;10.10;;;;;;;11.59;89.99;100452.38;4326965;33;34840;-73
2022/11/01 01:11:11;;;;;;;20.15;9.52;;;;;;;11.49;90.83;100450.25;4340416;33;34346;-73
2022/11/01 01:13:38;;;;;;;22.77;10.55;;;;;;;11.32;93.02;100454.75;4339767;33;33856;-74
2022/11/01 01:16:10;;;;;;;19.05;9.73;;;;;;;11.77;89.20;100451.41;4340116;33;34179;-73
2022/11/01 01:18:38;;;;;;;17.67;10.00;;;;;;;11.43;91.73;100445.78;4335364;33;34669;-74
2022/11/01 01:21:05;;;;;;;23.87;11.43;;;;;;;11.56;90.75;100447.41;4327132;33;32775;-72
2022/11/01 01:23:33;;;;;;;23.15;10.48;;;;;;;11.29;92.15;100434.34;4339640;33;34641;-72
2022/11/01 01:26:05;;;;;;;24.23;11.00;;;;;;;11.24;92.94;100431.47;4340547;33;35205;-76
2022/11/01 01:28:32;;;;;;;26.87;10.65;;;;;;;11.29;93.07;100423.47;4325048;33;34763;-73
2022/11/01 01:31:05;;;;;;;28.52;11.75;;;;;;;11.23;93.29;100440.72;4340775;33;33912;-73
2022/11/01 01:33:33;;;;;;;24.00;11.40;;;;;;;11.54;91.42;100438.69;4340775;33;34795;-72
2022/11/01 01:36:04;;;;;;;24.77;10.88;;;;;;;11.35;91.55;100437.97;4338922;33;34128;-72
2022/11/01 01:38:32;;;;;;;24.40;10.10;;;;;;;11.17;92.55;100436.22;4326055;33;33156;-73
2022/11/01 01:41:54;;;;;;;16.98;9.77;;;;;;;11.49;91.06;100433.97;4340785;33;33831;-73
2022/11/01 01:43:47;;;;;;;24.42;9.48;;;;;;;11.01;92.89;100416.00;4337467;33;34702;-73
2022/11/01 01:46:14;;;;;;;20.85;10.45;;;;;;;11.13;92.93;100417.91;4340732;33;34658;-74
2022/11/01 01:48:43;;;;;;;22.80;10.73;;;;;;;10.81;94.67;100426.38;4338365;33;33862;-73
2022/11/01 01:51:15;;;;;;;29.02;10.77;;;;;;;11.16;92.74;100429.12;4324858;33;33024;-74
2022/11/01 01:53:44;;;;;;;21.83;10.57;;;;;;;11.13;93.58;100435.03;4327467;33;33778;-74
2022/11/01 01:56:15;;;;;;;23.65;10.27;;;;;;;11.35;91.77;100431.72;4327749;33;33904;-77
2022/11/01 01:58:50;;;;;;;21.85;9.45;;;;;;;11.50;90.09;100423.91;4325873;33;33894;-77
2022/11/01 02:01:17;;;;;;;20.52;10.13;;;;;;;11.25;91.77;100421.44;4337743;33;33632;-77
2022/11/01 02:03:45;;;;;;;22.67;10.82;;;;;;;11.09;92.38;100428.41;4338474;33;33782;-78
2022/11/01 02:06:15;;;;;;;23.73;10.65;;;;;;;11.51;90.53;100430.97;4324572;33;34141;-76
2022/11/01 02:08:50;;;;;;;25.92;10.70;;;;;;;11.34;90.72;100428.19;4326885;33;33974;-76
2022/11/01 02:11:19;;;;;;;24.77;11.05;;;;;;;11.36;90.80;100419.78;4323738;33;33499;-73
2022/11/01 02:13:47;;;;;;;29.83;11.38;;;;;;;11.24;91.97;100419.81;4326522;33;34163;-74
2022/11/01 02:16:29;;;;;;;24.75;10.52;;;;;;;11.04;93.69;100412.81;4326008;33;34998;-75
2022/11/01 02:19:25;;;;;;;23.83;11.63;;;;;;;10.92;94.35;100414.69;4340363;33;33779;-74
2022/11/01 02:22:01;;;;;;;25.95;11.45;;;;;;;11.20;93.05;100407.75;4339503;33;34227;-74
2022/11/01 02:24:38;;;;;;;26.80;11.02;;;;;;;11.09;93.05;100412.12;4337586;33;34015;-73
2022/11/01 02:27:27;;;;;;;26.67;10.65;;;;;;;11.09;94.19;100409.41;4323771;33;33339;-74
2022/11/01 02:30:08;;;;;;;27.85;12.57;;;;;;;11.15;93.38;100413.91;4340595;33;34203;-73
2022/11/01 02:32:48;;;;;;;30.67;13.25;;;;;;;11.27;92.46;100411.16;4327096;33;35094;-73
2022/11/01 02:35:21;;;;;;;27.95;11.95;;;;;;;11.42;91.73;100405.25;4340654;33;33894;-73
2022/11/01 02:38:06;;;;;;;28.98;11.98;;;;;;;11.12;93.18;100394.53;4313862;33;33896;-74
2022/11/01 02:40:42;;;;;;;28.35;12.48;;;;;;;10.92;94.78;100386.72;4323332;33;34200;-73
2022/11/01 02:43:21;;;;;;;30.00;11.68;;;;;;;11.28;93.32;100391.09;4326036;33;33042;-74
2022/11/01 02:45:49;;;;;;;25.00;11.55;;;;;;;11.65;89.97;100393.53;4325393;33;34942;-73
2022/11/01 02:48:20;;;;;;;28.33;12.13;;;;;;;11.63;89.22;100390.22;4325148;33;34957;-77
2022/11/01 02:50:54;;;;;;;27.98;12.00;;;;;;;11.82;88.46;100396.31;4324222;33;34766;-77
2022/11/01 02:53:22;;;;;;;25.58;10.80;;;;;;;11.63;88.64;100384.78;4325026;33;34454;-76
2022/11/01 06:15:17;;;;;;;32.30;14.00;;;;;;;10.53;95.76;100387.16;4474151;27;234304;-71
2022/11/01 06:17:45;;;;;;;34.00;14.52;;;;;;;11.32;91.16;100386.00;4344778;33;34260;-72
2022/11/01 06:20:12;;;;;;;34.72;14.40;;;;;;;11.45;88.81;100389.31;4346656;33;33520;-74
2022/11/01 06:22:40;;;;;;;34.35;14.68;;;;;;;11.16;90.37;100393.81;4333105;33;34043;-72
2022/11/01 06:25:07;;;;;;;37.05;14.75;;;;;;;10.94;92.15;100380.00;4345033;33;33927;-72
2022/11/01 06:27:35;;;;;;;30.88;14.07;;;;;;;10.96;92.66;100383.31;4332842;33;34416;-72
2022/11/01 06:30:03;;;;;;;26.10;13.70;;;;;;;11.13;90.82;100383.44;4345960;33;32603;-70
2022/11/01 06:32:32;;;;;;;28.58;13.43;;;;;;;11.32;89.81;100394.16;4346304;33;34047;-71
2022/11/01 06:34:59;;;;;;;27.58;13.02;;;;;;;11.36;89.59;100392.63;4345847;33;33779;-69
2022/11/01 06:37:26;;;;;;;24.58;12.18;;;;;;;11.01;91.25;100385.31;4335456;32;33786;-70
2022/11/01 06:39:54;;;;;;;29.48;13.00;;;;;;;11.11;91.27;100377.41;4331540;33;34465;-75
2022/11/01 06:42:21;;;;;;;27.42;13.18;;;;;;;10.74;93.72;100387.66;4331709;33;34804;-74
2022/11/01 06:44:49;;;;;;;30.95;13.20;;;;;;;11.03;91.27;100396.75;4321795;33;34603;-71
2022/11/01 06:47:16;;;;;;;27.80;12.20;;;;;;;11.25;89.77;100392.41;4343795;32;33792;-72
2022/11/01 06:49:44;;;;;;;33.33;13.90;;;;;;;11.35;89.44;100401.84;4330298;33;33628;-71
2022/11/01 06:52:11;;;;;;;29.37;13.52;;;;;;;11.34;88.78;100397.44;4332249;33;34673;-71
2022/11/01 06:54:39;;;;;;;27.58;13.18;;;;;;;11.24;90.02;100401.59;4332074;33;34785;-72
2022/11/01 06:57:06;;;;;;;23.70;11.45;;;;;;;11.36;88.44;100400.75;4331954;33;33380;-72
2022/11/01 06:59:34;;;;;;;28.50;12.25;;;;;;;11.47;88.28;100403.47;4332665;33;34607;-71
2022/11/01 07:02:01;;;;;;;23.23;11.63;;;;;;;11.42;88.99;100399.81;4329790;33;34061;-71
2022/11/01 07:04:29;;;;;;;28.33;12.30;;;;;;;11.47;88.44;100400.75;4332801;33;35088;-72
2022/11/01 07:06:56;;;;;;;26.58;12.05;;;;;;;10.80;93.40;100394.88;4331537;33;33920;-74
2022/11/01 07:09:24;;;;;;;28.35;12.68;;;;;;;11.29;90.40;100400.88;4332971;33;34196;-71
2022/11/01 07:11:51;;;;;;;27.65;12.13;;;;;;;10.87;92.31;100398.31;4333159;33;34120;-71
2022/11/01 07:14:19;;;;;;;26.50;12.32;;;;;;;10.85;93.08;100403.97;4332705;33;34266;-72
2022/11/01 07:16:46;;;;;;;31.55;13.40;;;;;;;10.98;92.34;100404.81;4330510;33;33830;-72
2022/11/01 07:19:14;;;;;;;26.60;12.27;;;;;;;11.69;87.81;100408.28;4305177;33;33059;-72
2022/11/01 07:21:41;;;;;;;32.42;12.90;;;;;;;11.46;88.93;100406.44;4313901;33;34082;-73
2022/11/01 07:24:09;;;;;;;28.23;13.18;;;;;;;11.70;87.30;100413.50;4333906;33;34953;-72
2022/11/01 07:26:36;;;;;;;22.40;11.73;;;;;;;11.79;87.57;100407.66;4333428;33;33955;-73
2022/11/01 07:29:03;;;;;;;23.67;11.38;;;;;;;11.65;87.89;100402.50;4319411;33;33762;-72
2022/11/01 07:31:32;;;;;;;21.83;11.90;;;;;;;11.40;89.87;100410.94;4328781;33;33774;-71
2022/11/01 07:33:59;;;;;;;23.15;11.05;;;;;;;11.80;87.68;100412.03;4332748;33;34899;-72
2022/11/01 07:36:27;;;;;;;23.20;11.40;;;;;;;11.82;87.15;100413.44;4333744;33;33827;-75
2022/11/01 07:38:54;;;;;;;21.27;11.07;;;;;;;11.71;87.28;100408.88;4332147;33;33224;-72
2022/11/01 07:41:22;;;;;;;21.10;10.45;;;;;;;11.65;87.00;100404.38;4333995;33;33770;-73
2022/11/01 07:43:49;;;;;;;21.77;11.57;;;;;;;11.80;86.18;100417.47;4333909;33;34004;-77
2022/11/01 07:46:17;;;;;;;26.95;12.27;;;;;;;11.88;84.90;100414.41;4332421;33;33509;-73
2022/11/01 07:48:44;;;;;;;21.98;11.35;;;;;;;11.68;86.53;100426.50;4320269;33;32673;-74
2022/11/01 07:51:12;;;;;;;28.40;12.10;;;;;;;11.48;87.56;100423.31;4333923;33;33911;-73
2022/11/01 07:53:39;;;;;;;25.92;11.27;;;;;;;11.43;88.39;100417.78;4332831;33;34913;-73
2022/11/01 07:56:07;;;;;;;23.33;11.27;;;;;;;11.21;90.28;100414.81;4333736;33;33908;-70
2022/11/01 07:58:34;;;;;;;23.85;11.38;;;;;;;11.43;87.92;100421.31;4334117;33;33548;-71
2022/11/01 08:01:02;;;;;;;25.75;12.75;;;;;;;11.58;88.19;100417.28;4331719;33;34081;-71
2022/11/01 08:03:29;;;;;;;19.52;10.73;;;;;;;11.55;87.28;100418.56;4319537;33;34105;-73
2022/11/01 08:05:57;;;;;;;26.58;11.82;;;;;;;11.56;87.67;100411.28;4334199;33;34055;-71
2022/11/01 08:08:24;;;;;;;23.80;11.20;;;;;;;10.97;90.93;100406.69;4331407;33;33073;-71
2022/11/01 08:10:52;;;;;;;45.45;24.27;;;;;;;11.20;90.83;100413.19;4328100;33;34179;-75
2022/11/01 08:13:23;;;;;;;24.23;13.00;;;;;;;11.33;89.37;100406.69;4336694;33;34296;-74
2022/11/01 08:15:52;;;;;;;22.70;12.68;;;;;;;11.09;90.44;100404.78;4330952;33;33631;-74
2022/11/01 08:18:22;;;;;;;23.90;13.13;;;;;;;11.11;91.09;100401.03;4336149;33;33368;-74
2022/11/01 08:20:49;;;;;;;26.30;12.80;;;;;;;11.66;87.37;100408.75;4327515;33;33901;-74
2022/11/01 08:23:17;;;;;;;24.63;13.15;;;;;;;11.26;89.61;100404.91;4333115;33;34889;-74
2022/11/01 08:25:44;;;;;;;22.02;12.05;;;;;;;11.57;88.31;100399.31;4338786;33;34803;-74
2022/11/01 08:28:17;;;;;;;27.00;12.70;;;;;;;11.48;88.37;100405.12;4330917;33;34389;-74
2022/11/01 08:30:46;;;;;;;26.15;11.98;;;;;;;11.22;89.80;100403.72;4329295;33;34879;-75
2022/11/01 08:33:14;;;;;;;24.12;12.88;;;;;;;11.25;90.38;100399.72;4331666;33;34213;-74
2022/11/01 08:35:42;;;;;;;24.67;12.37;;;;;;;11.30;90.67;100399.84;4328278;33;32987;-74
2022/11/01 08:38:17;;;;;;;22.70;12.35;;;;;;;11.16;92.15;100406.56;4332797;33;33546;-74
2022/11/01 08:40:44;;;;;;;27.37;13.23;;;;;;;11.27;91.56;100413.87;4319060;33;34029;-75
2022/11/01 08:43:11;;;;;;;24.95;12.85;;;;;;;11.66;88.42;100400.59;4338583;33;34330;-75
2022/11/01 08:45:39;;;;;;;29.20;13.75;;;;;;;11.40;90.05;100407.38;4335404;33;33516;-72
2022/11/01 08:48:08;;;;;;;23.65;12.57;;;;;;;11.74;88.03;100408.38;4338708;33;33432;-78
2022/11/01 08:50:35;;;;;;;24.77;12.02;;;;;;;11.41;89.79;100407.16;4340053;33;33471;-72
2022/11/01 08:53:05;;;;;;;25.02;12.70;;;;;;;11.55;89.28;100404.97;4327504;33;34985;-70
2022/11/01 08:55:32;;;;;;;22.62;11.32;;;;;;;12.16;85.84;100399.16;4337453;33;33909;-69
2022/11/01 08:58:06;;;;;;;24.70;11.45;;;;;;;12.16;85.11;100405.44;4337549;33;33623;-70
2022/11/01 09:00:34;;;;;;;21.45;11.45;;;;;;;11.27;89.82;100408.44;4330928;33;34737;-69
2022/11/01 09:03:01;;;;;;;25.83;12.10;;;;;;;11.76;87.08;100402.72;4324437;33;35086;-71
2022/11/01 09:05:30;;;;;;;24.15;11.55;;;;;;;11.57;88.35;100407.47;4338519;33;34942;-71
2022/11/01 09:07:58;;;;;;;26.10;12.63;;;;;;;11.55;88.47;100407.69;4334190;33;33632;-70
2022/11/01 09:10:29;;;;;;;23.45;12.18;;;;;;;11.65;87.81;100405.22;4330971;33;33983;-70
2022/11/01 09:12:58;;;;;;;25.10;12.50;;;;;;;11.67;87.19;100396.81;4313589;33;34734;-71
2022/11/01 09:15:27;;;;;;;26.73;13.40;;;;;;;11.72;87.58;100409.69;4315449;33;33799;-74
2022/11/01 09:17:54;;;;;;;27.95;13.98;;;;;;;11.65;87.55;100401.69;4317071;33;33228;-71
2022/11/01 09:20:22;;;;;;;30.08;14.20;;;;;;;10.73;91.80;100397.69;4331902;33;33736;-69
2022/11/01 09:22:53;;;;;;;25.37;12.82;;;;;;;11.45;89.51;100393.91;4318154;33;34195;-72
2022/11/01 09:25:20;;;;;;;26.55;13.98;;;;;;;11.56;89.75;100394.97;4314022;33;33733;-70
2022/11/01 09:27:48;;;;;;;24.95;13.23;;;;;;;12.14;85.47;100399.44;4330724;33;34177;-70
2022/11/01 09:30:16;;;;;;;26.58;12.95;;;;;;;11.90;86.27;100391.34;4313746;33;33943;-74
2022/11/01 09:32:43;;;;;;;25.80;13.15;;;;;;;12.08;84.77;100395.78;4330328;33;33542;-70
2022/11/01 09:35:10;;;;;;;25.08;12.55;;;;;;;11.82;85.90;100391.69;4328579;33;34790;-71
2022/11/01 09:37:38;;;;;;;22.62;12.02;;;;;;;12.33;83.72;100397.31;4313465;33;33508;-70
2022/11/01 09:40:06;;;;;;;25.60;12.10;;;;;;;11.85;86.53;100396.63;4316480;33;34657;-71
2022/11/01 09:42:38;;;;;;;30.73;13.57;;;;;;;11.43;88.13;100402.31;4329088;33;35090;-70
2022/11/01 09:45:20;;;;;;;25.92;12.90;;;;;;;11.70;87.63;100396.34;4330594;33;33875;-69
2022/11/01 09:47:52;;;;;;;21.87;12.32;;;;;;;12.18;84.45;100397.03;4315156;33;33817;-70
2022/11/01 09:50:29;;;;;;;26.17;12.57;;;;;;;11.75;87.12;100390.16;4317403;33;33543;-70
2022/11/01 09:52:59;;;;;;;24.70;12.68;;;;;;;11.35;88.55;100388.25;4316549;33;34016;-70
2022/11/01 09:55:38;;;;;;;26.67;12.82;;;;;;;11.69;86.75;100390.06;4315730;33;34881;-70
2022/11/01 09:58:26;;;;;;;24.08;12.73;;;;;;;11.32;88.46;100396.87;4327775;33;34420;-70
2022/11/01 10:01:10;;;;;;;24.25;12.82;;;;;;;11.79;86.15;100392.19;4326287;33;33664;-75
2022/11/01 10:03:41;;;;;;;25.85;13.02;;;;;;;12.24;83.56;100394.16;4324238;33;34194;-71
2022/11/01 10:06:16;;;;;;;25.00;13.10;;;;;;;12.15;83.64;100384.75;4338825;33;34263;-75
2022/11/01 10:08:57;;;;;;;28.85;12.75;;;;;;;11.65;85.76;100385.38;4327045;33;33641;-72
2022/11/01 10:11:46;;;;;;;24.58;12.48;;;;;;;11.83;85.32;100390.63;4327748;33;33951;-74
2022/11/01 10:14:45;;;;;;;25.23;13.90;;;;;;;12.02;84.64;100385.84;4330883;33;33805;-71
2022/11/01 10:17:14;;;;;;;27.23;15.07;;;;;;;11.92;85.13;100385.66;4339103;33;33818;-71
2022/11/01 10:19:46;;;;;;;32.17;13.95;;;;;;;11.91;86.62;100384.00;4324182;33;34188;-71
2022/11/01 10:22:19;;;;;;;23.45;12.77;;;;;;;11.87;87.14;100374.66;4313894;33;33607;-77
2022/11/01 10:25:02;;;;;;;26.70;13.23;;;;;;;12.28;84.99;100375.44;4316415;33;34568;-70
2022/11/01 10:27:46;;;;;;;26.85;14.35;;;;;;;12.29;84.77;100374.41;4330200;33;34692;-71
2022/11/01 10:30:15;;;;;;;26.70;13.52;;;;;;;12.07;86.02;100371.53;4331193;33;33312;-72
2022/11/01 10:33:24;;;;;;;25.08;12.77;;;;;;;11.42;90.24;100378.06;4325952;33;33768;-71
2022/11/01 10:35:56;;;;;;;21.23;12.37;;;;;;;11.79;87.68;100375.87;4268792;33;34355;-73
2022/11/01 10:38:36;;;;;;;27.83;13.18;;;;;;;11.90;86.87;100366.88;4320383;33;33727;-71
2022/11/01 10:41:36;;;;;;;25.45;12.57;;;;;;;11.92;87.64;100382.13;4336342;33;33105;-73
2022/11/01 10:44:10;;;;;;;29.48;14.32;;;;;;;11.60;88.77;100379.84;4327098;33;34677;-72
2022/11/01 10:46:39;;;;;;;;;;;;;;;12.19;85.24;100375.03;4327632;33;34112;-73
2022/11/01 10:49:19;;;;;;;26.17;13.38;;;;;;;11.65;88.13;100378.03;4329004;33;35203;-71
2022/11/01 10:51:54;;;;;;;27.50;13.98;;;;;;;11.93;86.84;100376.44;4328486;33;33640;-72
2022/11/01 10:54:25;;;;;;;30.58;13.70;;;;;;;11.66;87.89;100374.25;4326840;33;34052;-71
2022/11/01 10:56:58;;;;;;;25.90;14.10;;;;;;;11.88;86.99;100376.34;4317417;33;33376;-71
2022/11/01 10:59:32;;;;;;;21.35;12.82;;;;;;;11.59;88.68;100370.00;4319720;33;33892;-76
2022/11/01 11:02:04;;;;;;;25.65;14.30;;;;;;;11.84;88.71;100369.72;4318481;33;33688;-73
2022/11/01 11:04:32;;;;;;;25.75;13.95;;;;;;;12.32;85.16;100369.28;4310296;33;34069;-72
2022/11/01 11:06:59;;;;;;;27.87;13.13;;;;;;;11.76;87.38;100365.47;4331337;33;34844;-74
2022/11/01 11:09:33;;;;;;;27.58;13.93;;;;;;;12.10;85.54;100368.34;4313990;33;33710;-74
2022/11/01 11:12:05;;;;;;;26.65;13.05;;;;;;;12.50;84.02;100367.41;4329914;33;33625;-73
2022/11/01 11:14:33;;;;;;;26.48;13.23;;;;;;;12.65;83.68;100370.38;4317433;33;33806;-73
2022/11/01 11:17:02;;;;;;;26.58;13.98;;;;;;;12.63;83.07;100369.78;4317437;33;34292;-73
2022/11/01 11:19:29;;;;;;;28.50;14.70;;;;;;;12.46;83.64;100366.22;4315731;33;33929;-75
2022/11/01 11:21:58;;;;;;;26.37;14.18;;;;;;;12.42;83.87;100357.75;4330958;33;34556;-73
2022/11/01 11:24:39;;;;;;;26.58;14.10;;;;;;;12.19;83.85;100349.72;4314663;33;34154;-72
2022/11/01 11:27:13;;;;;;;29.37;14.40;;;;;;;12.62;82.06;100348.28;4316875;33;33916;-73
2022/11/01 11:29:52;;;;;;;26.40;15.85;;;;;;;12.65;81.29;100361.38;4317458;33;33667;-72
2022/11/01 11:32:25;;;;;;;28.70;15.30;;;;;;;12.80;80.56;100352.63;4317429;33;34286;-72
2022/11/01 11:34:55;;;;;;;27.75;15.32;;;;;;;12.98;78.67;100354.25;4305485;33;34494;-73
2022/11/01 11:37:27;;;;;;;29.05;15.20;;;;;;;12.57;80.61;100348.19;4330753;33;34845;-73
2022/11/01 11:40:18;;;;;;;29.12;15.30;;;;;;;12.14;83.35;100347.75;4331212;33;34147;-72
2022/11/01 11:42:50;;;;;;;26.42;14.25;;;;;;;12.20;83.07;100348.63;4332814;33;33775;-73
2022/11/01 11:45:23;;;;;;;29.80;16.05;;;;;;;12.49;81.50;100344.81;4319235;33;33809;-74
2022/11/01 11:47:51;;;;;;;29.33;16.02;;;;;;;12.66;80.39;100342.09;4332000;33;34083;-74
2022/11/01 11:50:19;;;;;;;27.95;14.85;;;;;;;12.52;80.78;100338.84;4316266;33;33794;-73
2022/11/01 11:52:48;;;;;;;30.40;15.68;;;;;;;12.09;82.85;100334.88;4330294;33;33509;-74
2022/11/01 11:55:26;;;;;;;26.67;15.20;;;;;;;11.76;85.67;100345.63;4327518;33;33865;-75
2022/11/01 11:57:54;;;;;;;29.67;15.48;;;;;;;12.23;82.75;100345.44;4330179;33;35124;-72
2022/11/01 12:00:23;;;;;;;27.37;16.15;;;;;;;12.50;81.01;100345.63;4307002;33;32887;-72
2022/11/01 12:02:50;;;;;;;28.75;15.05;;;;;;;12.55;81.37;100339.44;4307342;33;33662;-75
2022/11/01 12:05:21;;;;;;;27.85;14.80;;;;;;;12.08;83.72;100332.37;4332375;33;33763;-73
2022/11/01 12:07:53;;;;;;;29.75;15.35;;;;;;;12.55;81.95;100339.44;4317810;33;34738;-75
2022/11/01 12:10:34;;;;;;;29.00;14.75;;;;;;;12.41;81.99;100326.16;4317424;33;34757;-73
2022/11/01 12:13:09;;;;;;;29.58;15.38;;;;;;;12.55;83.21;100329.38;4307054;33;33564;-75
2022/11/01 12:15:37;;;;;;;25.25;13.85;;;;;;;12.85;81.47;100326.31;4318752;33;33776;-74
2022/11/01 12:18:18;;;;;;;24.70;13.25;;;;;;;13.10;79.36;100322.28;4318959;33;34013;-74
2022/11/01 12:20:50;;;;;;;24.02;13.18;;;;;;;13.41;75.92;100323.56;4331881;33;34115;-74
2022/11/01 12:23:36;;;;;;;23.02;13.48;;;;;;;13.43;76.31;100320.56;4331661;33;33595;-74
2022/11/01 12:26:07;;;;;;;29.02;14.55;;;;;;;13.21;76.20;100313.19;4318397;33;34075;-73
2022/11/01 12:28:47;;;;;;;25.60;14.60;;;;;;;13.24;76.51;100309.97;4331392;33;35205;-74
2022/11/01 12:31:17;;;;;;;24.45;13.13;;;;;;;13.24;77.15;100314.56;4318332;33;34912;-74
2022/11/01 12:33:50;;;;;;;26.12;14.18;;;;;;;13.78;74.89;100314.72;4318518;33;34326;-75
2022/11/01 12:36:23;;;;;;;24.00;14.63;;;;;;;13.24;76.64;100300.94;4318753;33;33456;-74
2022/11/01 12:39:11;;;;;;;25.60;14.02;;;;;;;13.38;75.88;100304.16;4315707;33;34510;-75
2022/11/01 12:41:46;;;;;;;25.67;14.38;;;;;;;13.80;75.37;100307.12;4304963;33;34702;-74
2022/11/01 12:44:27;;;;;;;26.55;13.57;;;;;;;13.82;75.30;100307.69;4316169;33;33622;-74
2022/11/01 12:47:04;;;;;;;27.58;14.70;;;;;;;14.24;72.44;100293.34;4317951;33;33442;-75
2022/11/01 12:49:31;;;;;;;26.52;14.23;;;;;;;13.84;73.96;100291.84;4318680;33;33797;-73
2022/11/01 12:52:10;;;;;;;23.30;14.00;;;;;;;13.79;72.70;100291.81;4332033;33;33348;-74
2022/11/01 12:54:42;;;;;;;23.55;13.05;;;;;;;13.28;74.86;100299.38;4331951;33;33120;-73
2022/11/01 12:57:19;;;;;;;25.92;14.23;;;;;;;13.02;76.66;100298.22;4318579;33;34902;-75
2022/11/01 12:59:46;;;;;;;28.20;14.43;;;;;;;13.32;76.23;100281.47;4332192;33;35768;-72
2022/11/01 13:02:47;;;;;;;25.33;13.23;;;;;;;13.69;74.60;100289.81;4316832;33;33823;-74
2022/11/01 13:05:32;;;;;;;25.37;14.07;;;;;;;13.87;73.22;100293.28;4279336;33;34395;-78
2022/11/01 13:08:10;;;;;;;25.83;14.07;;;;;;;13.52;74.82;100300.81;4331908;33;34066;-74
2022/11/01 13:10:46;;;;;;;27.05;15.07;;;;;;;13.79;72.98;100291.00;4318618;33;35061;-74
2022/11/01 13:13:29;;;;;;;27.73;14.70;;;;;;;13.53;73.46;100291.53;4332355;33;33849;-73
2022/11/01 13:16:02;;;;;;;23.52;13.80;;;;;;;13.41;75.66;100296.31;4328594;33;32797;-75
2022/11/01 13:18:40;;;;;;;26.33;14.55;;;;;;;13.32;75.71;100292.38;4317419;33;34767;-75
2022/11/01 13:21:43;;;;;;;24.23;14.20;;;;;;;13.64;74.36;100295.19;4331198;33;35087;-74
2022/11/01 13:24:28;;;;;;;22.65;13.02;;;;;;;13.11;75.65;100286.62;4313711;33;34130;-73
2022/11/01 13:27:05;;;;;;;21.92;13.27;;;;;;;13.08;76.35;100278.13;4318687;33;34606;-75
2022/11/01 13:29:34;;;;;;;26.65;13.52;;;;;;;13.22;75.77;100276.69;4318513;33;35341;-73
2022/11/01 13:32:08;;;;;;;23.70;13.18;;;;;;;13.38;74.62;100279.62;4319016;33;34291;-74
2022/11/01 13:35:03;;;;;;;24.70;12.80;;;;;;;13.41;74.73;100281.84;4317552;33;33710;-72
2022/11/01 13:37:36;;;;;;;23.10;12.43;;;;;;;13.51;74.64;100279.25;4331921;33;33326;-72
2022/11/01 13:40:13;;;;;;;26.42;13.38;;;;;;;13.28;75.61;100281.16;4332350;33;34027;-72
2022/11/01 13:42:51;;;;;;;22.95;13.43;;;;;;;13.05;76.40;100284.09;4332152;33;34999;-74
2022/11/01 13:45:29;;;;;;;23.73;13.43;;;;;;;13.54;74.57;100276.84;4330474;33;34857;-74
2022/11/01 13:48:13;;;;;;;23.87;14.02;;;;;;;13.73;73.25;100263.66;4332127;33;33112;-74
2022/11/01 13:51:23;;;;;;;19.90;12.33;;;;;;;13.68;73.75;100274.53;4317824;33;32395;-73
2022/11/01 13:54:12;;;;;;;23.80;13.75;;;;;;;14.18;71.49;100274.47;4315793;33;34189;-75
2022/11/01 13:56:56;;;;;;;26.05;13.73;;;;;;;14.51;69.90;100276.91;4319141;33;33392;-73
2022/11/01 13:59:44;;;;;;;27.20;14.13;;;;;;;14.11;70.53;100280.94;4327772;33;34363;-73
2022/11/01 14:02:27;;;;;;;25.58;13.80;;;;;;;13.75;71.96;100282.50;4338051;33;33689;-77
2022/11/01 14:04:57;;;;;;;25.65;14.02;;;;;;;13.58;73.29;100276.31;4331449;33;34286;-73
2022/11/01 14:07:43;;;;;;;21.80;13.15;;;;;;;13.72;72.77;100278.38;4340135;33;33992;-75
2022/11/01 14:10:17;;;;;;;28.95;14.55;;;;;;;13.81;72.73;100283.38;4347806;33;34402;-76
2022/11/01 14:13:10;;;;;;;26.20;14.38;;;;;;;14.25;71.26;100281.31;4331305;33;31844;-75
2022/11/01 14:15:53;;;;;;;26.80;14.60;;;;;;;14.40;70.23;100272.44;4319498;33;34186;-77
2022/11/01 14:18:21;;;;;;;24.23;13.30;;;;;;;14.41;69.94;100276.00;4332990;33;33695;-76
2022/11/01 14:20:50;;;;;;;28.12;14.38;;;;;;;14.04;71.33;100277.63;4321067;33;33640;-74
2022/11/01 14:23:27;;;;;;;24.83;14.10;;;;;;;13.94;71.87;100274.78;4318031;33;34694;-74
2022/11/01 14:26:26;;;;;;;31.67;16.95;;;;;;;14.15;71.46;100275.81;4317287;33;33978;-75
2022/11/01 14:28:57;;;;;;;35.38;21.75;;;;;;;14.39;70.36;100268.09;4328199;33;33643;-72
2022/11/01 14:31:27;;;;;;;33.45;19.87;;;;;;;14.14;71.01;100274.13;4328829;33;34467;-74
2022/11/01 14:33:55;;;;;;;29.60;18.77;;;;;;;13.95;72.05;100274.53;4329726;33;34060;-75
2022/11/01 14:36:30;;;;;;;27.58;15.57;;;;;;;13.99;72.43;100274.81;4332798;33;35028;-76
2022/11/01 14:39:07;;;;;;;26.45;14.77;;;;;;;14.00;72.22;100275.66;4330266;33;34674;-76
2022/11/01 14:41:39;;;;;;;23.73;14.32;;;;;;;14.20;71.63;100266.84;4339313;33;32482;-75
2022/11/01 14:44:17;;;;;;;28.42;14.65;;;;;;;14.16;71.18;100270.06;4331893;33;33898;-76
2022/11/01 14:46:48;;;;;;;23.27;14.25;;;;;;;14.18;71.37;100266.25;4329143;33;35113;-74
2022/11/01 14:49:32;;;;;;;28.05;14.63;;;;;;;14.44;69.82;100270.84;4319569;33;33946;-75
2022/11/01 14:52:05;;;;;;;26.37;14.57;;;;;;;14.12;70.99;100279.03;4319523;33;32964;-75
2022/11/01 14:54:55;;;;;;;25.40;14.27;;;;;;;14.22;70.70;100281.84;4331593;33;34149;-75